Time;durP1;ratioP1;P1;durP2;ratioP2;P2;SDS_P1;SDS_P2;PMS_P1;PMS_P2;Temp;Humidity;BMP_temperature;BMP_pressure;BME280_temperature;BME280_humidity;BME280_pressure;Samples;Min_cycle;Max_cycle;Signal;HPM_P1;HPM_P2
2023/10/21 00:02:22;;;;;;;2.33;2.13;;;6.30;99.90;;;;;;4968086;28;20474;-60
2023/10/21 00:04:50;;;;;;;2.30;2.10;;;6.30;99.90;;;;;;4967998;28;20949;-60
2023/10/21 00:07:18;;;;;;;2.83;2.30;;;6.40;99.90;;;;;;4968956;28;21015;-60
2023/10/21 00:09:46;;;;;;;2.50;2.30;;;6.30;99.90;;;;;;4969612;28;20470;-60
2023/10/21 00:12:14;;;;;;;2.80;2.50;;;6.30;99.90;;;;;;4967341;28;20560;-60
2023/10/21 00:14:43;;;;;;;3.30;3.00;;;6.30;99.90;;;;;;4968602;28;20592;-61
2023/10/21 00:17:12;;;;;;;4.17;2.70;;;6.30;99.90;;;;;;4976502;28;20485;-60
2023/10/21 00:19:40;;;;;;;3.90;2.90;;;6.30;99.90;;;;;;4975384;28;20497;-60
2023/10/21 00:22:10;;;;;;;3.50;2.77;;;6.30;99.90;;;;;;4975462;28;20466;-61
2023/10/21 00:24:38;;;;;;;2.73;2.37;;;6.40;99.90;;;;;;4973206;28;20904;-60
2023/10/21 00:27:06;;;;;;;4.00;2.93;;;6.40;99.90;;;;;;4964534;28;20992;-60
2023/10/21 00:29:34;;;;;;;3.00;2.80;;;6.40;99.90;;;;;;4967217;28;20557;-60
2023/10/21 00:32:04;;;;;;;3.50;2.80;;;6.40;99.90;;;;;;4969415;28;20506;-60
2023/10/21 00:34:38;;;;;;;4.47;3.30;;;6.40;99.90;;;;;;4967900;28;20555;-60
2023/10/21 00:37:07;;;;;;;4.47;3.20;;;6.40;99.90;;;;;;4967325;28;21024;-60
2023/10/21 00:39:35;;;;;;;4.10;3.30;;;6.40;99.90;;;;;;4968229;28;20572;-61
2023/10/21 00:42:05;;;;;;;3.10;2.80;;;6.40;99.90;;;;;;4968486;28;20478;-60
2023/10/21 00:44:33;;;;;;;5.33;3.30;;;6.40;99.90;;;;;;4963807;28;20494;-60
2023/10/21 00:47:01;;;;;;;4.60;3.67;;;6.40;99.90;;;;;;4967808;28;20493;-60
2023/10/21 00:49:31;;;;;;;5.63;3.57;;;6.40;99.90;;;;;;4965304;28;20510;-60
2023/10/21 00:52:01;;;;;;;4.60;3.67;;;6.40;99.90;;;;;;4966783;28;20493;-60
2023/10/21 00:54:29;;;;;;;4.87;4.03;;;6.40;99.90;;;;;;4967921;28;20589;-60
2023/10/21 00:56:58;;;;;;;3.67;3.23;;;6.40;99.90;;;;;;4967128;28;20496;-61
2023/10/21 00:59:26;;;;;;;4.40;3.50;;;6.40;99.90;;;;;;4967439;28;20502;-61
2023/10/21 01:01:54;;;;;;;4.67;3.60;;;6.40;99.90;;;;;;4963130;28;20470;-60
2023/10/21 01:04:23;;;;;;;4.37;3.63;;;6.40;99.90;;;;;;4967241;28;20500;-60
2023/10/21 01:06:53;;;;;;;5.03;4.10;;;6.40;99.90;;;;;;4968104;28;20478;-60
2023/10/21 01:09:23;;;;;;;4.90;3.80;;;6.40;99.90;;;;;;4966491;28;20470;-60
2023/10/21 01:11:51;;;;;;;4.63;3.50;;;6.40;99.90;;;;;;4966916;28;20558;-60
2023/10/21 01:14:19;;;;;;;4.90;3.80;;;6.40;99.90;;;;;;4967975;28;20491;-60
2023/10/21 01:16:47;;;;;;;4.37;3.80;;;6.50;99.90;;;;;;4966892;28;20501;-60
2023/10/21 01:19:15;;;;;;;4.13;3.67;;;6.40;99.90;;;;;;4963051;28;20541;-60
2023/10/21 01:21:43;;;;;;;5.13;3.87;;;6.40;99.90;;;;;;4966356;28;20477;-60
2023/10/21 01:24:12;;;;;;;5.00;3.80;;;6.40;99.90;;;;;;4968484;28;20589;-60
2023/10/21 01:26:40;;;;;;;4.70;4.20;;;6.50;99.90;;;;;;4966566;28;20491;-60
2023/10/21 01:29:09;;;;;;;5.20;4.43;;;6.50;99.90;;;;;;4966523;28;20481;-60
2023/10/21 01:31:37;;;;;;;5.20;4.07;;;6.50;99.90;;;;;;4969132;28;20517;-60
2023/10/21 01:34:05;;;;;;;6.60;4.77;;;6.50;99.90;;;;;;4964367;28;20573;-61
2023/10/21 01:36:33;;;;;;;5.57;4.73;;;6.50;99.90;;;;;;4965190;28;20642;-60
2023/10/21 01:39:02;;;;;;;5.97;4.70;;;6.60;99.90;;;;;;4967427;28;20549;-60
2023/10/21 01:41:31;;;;;;;5.37;4.83;;;6.50;99.90;;;;;;4967207;28;20498;-60
2023/10/21 01:43:59;;;;;;;5.83;4.33;;;6.50;99.90;;;;;;4967095;28;20477;-60
2023/10/21 01:46:27;;;;;;;5.07;4.40;;;6.60;99.90;;;;;;4965039;28;20505;-60
2023/10/21 01:48:55;;;;;;;6.60;5.07;;;6.60;99.90;;;;;;4968441;28;20477;-60
2023/10/21 01:51:23;;;;;;;7.10;5.57;;;6.60;99.90;;;;;;4964936;28;20501;-60
2023/10/21 01:53:51;;;;;;;5.37;4.83;;;6.50;99.90;;;;;;4965019;28;20506;-61
2023/10/21 01:56:20;;;;;;;7.40;5.30;;;6.60;99.90;;;;;;4965547;28;20544;-60
2023/10/21 01:58:49;;;;;;;7.50;5.70;;;6.60;99.90;;;;;;4967602;28;20509;-60
2023/10/21 02:01:17;;;;;;;7.30;5.60;;;6.60;99.90;;;;;;4967651;28;20983;-60
2023/10/21 02:03:45;;;;;;;7.53;5.70;;;6.60;99.90;;;;;;4972066;28;20488;-60
2023/10/21 02:06:13;;;;;;;6.40;5.30;;;6.60;99.90;;;;;;4970038;28;20510;-60
2023/10/21 02:08:41;;;;;;;9.07;5.43;;;6.60;99.90;;;;;;4967670;28;20623;-60
2023/10/21 02:11:09;;;;;;;6.80;5.33;;;6.60;99.90;;;;;;4968749;28;20477;-60
2023/10/21 02:13:37;;;;;;;7.50;6.10;;;6.60;99.90;;;;;;4970230;28;21150;-60
2023/10/21 02:16:11;;;;;;;8.67;5.80;;;6.70;99.90;;;;;;4970095;28;20573;-60
2023/10/21 02:18:39;;;;;;;8.93;6.20;;;6.60;99.90;;;;;;4970185;28;20478;-60
2023/10/21 02:21:07;;;;;;;9.40;6.63;;;6.70;99.90;;;;;;4969195;28;20500;-60
2023/10/21 02:23:36;;;;;;;7.83;5.97;;;6.70;99.90;;;;;;4970843;28;20489;-60
2023/10/21 02:26:06;;;;;;;8.80;5.97;;;6.70;99.90;;;;;;4967913;28;20573;-60
2023/10/21 02:28:35;;;;;;;9.63;6.80;;;6.70;99.90;;;;;;4969467;28;20487;-60
2023/10/21 02:31:04;;;;;;;10.07;6.30;;;6.70;99.90;;;;;;4969359;28;20537;-60
2023/10/21 02:33:33;;;;;;;7.03;5.53;;;6.70;99.90;;;;;;4970250;28;20466;-60
2023/10/21 02:36:02;;;;;;;7.73;6.20;;;6.70;99.90;;;;;;4966691;28;20498;-60
2023/10/21 02:38:30;;;;;;;8.63;5.93;;;6.70;99.90;;;;;;4968561;28;20478;-60
2023/10/21 02:40:58;;;;;;;11.10;6.57;;;6.70;99.90;;;;;;4969754;28;20478;-60
2023/10/21 02:43:27;;;;;;;9.70;6.70;;;6.70;99.90;;;;;;4967641;28;20544;-60
2023/10/21 02:45:55;;;;;;;8.27;6.13;;;6.70;99.90;;;;;;4967037;28;21489;-60
2023/10/21 02:48:23;;;;;;;9.90;7.13;;;6.80;99.90;;;;;;4967952;28;21008;-60
2023/10/21 02:50:53;;;;;;;9.43;6.13;;;6.80;99.90;;;;;;4971198;28;20560;-60
2023/10/21 02:53:21;;;;;;;10.73;7.20;;;6.80;99.90;;;;;;4970560;28;20497;-60
2023/10/21 02:55:50;;;;;;;8.07;6.27;;;6.80;99.90;;;;;;4969508;28;20497;-60
2023/10/21 02:58:17;;;;;;;9.30;6.90;;;6.80;99.90;;;;;;4969848;28;20466;-60
2023/10/21 03:00:45;;;;;;;10.73;7.17;;;6.80;99.90;;;;;;4967966;28;20550;-61
2023/10/21 03:03:14;;;;;;;9.83;6.80;;;6.90;99.90;;;;;;4970475;28;20474;-60
2023/10/21 03:05:42;;;;;;;11.13;7.67;;;6.90;99.90;;;;;;4968665;28;20729;-60
2023/10/21 03:08:11;;;;;;;9.70;7.07;;;6.90;99.90;;;;;;4969994;28;20473;-61
2023/10/21 03:10:39;;;;;;;9.60;7.70;;;6.90;99.90;;;;;;4970522;28;21057;-60
2023/10/21 03:13:07;;;;;;;10.47;6.87;;;6.90;99.90;;;;;;4975743;28;20490;-60
2023/10/21 03:15:35;;;;;;;10.20;7.20;;;6.90;99.90;;;;;;4975730;28;20489;-60
2023/10/21 03:18:04;;;;;;;14.43;7.80;;;6.90;99.90;;;;;;4972594;28;20502;-60
2023/10/21 03:20:33;;;;;;;9.20;6.90;;;6.90;99.90;;;;;;4976602;28;20470;-60
2023/10/21 03:23:00;;;;;;;9.57;6.90;;;7.00;99.90;;;;;;4969213;28;20548;-60
2023/10/21 03:25:30;;;;;;;9.70;7.67;;;7.00;99.90;;;;;;4970546;28;20525;-61
2023/10/21 03:27:58;;;;;;;12.43;7.83;;;7.00;99.90;;;;;;4965889;28;20589;-60
2023/10/21 03:30:26;;;;;;;10.10;7.40;;;7.00;99.90;;;;;;4968934;28;20550;-60
2023/10/21 03:32:55;;;;;;;12.30;8.83;;;7.00;99.90;;;;;;4970101;28;20557;-60
2023/10/21 03:35:23;;;;;;;11.37;8.00;;;7.00;99.90;;;;;;4966758;28;20517;-61
2023/10/21 03:37:51;;;;;;;11.80;8.37;;;7.00;99.90;;;;;;4967629;28;20518;-60
2023/10/21 03:40:19;;;;;;;12.30;8.33;;;7.00;99.90;;;;;;4968578;28;20517;-60
2023/10/21 03:42:48;;;;;;;11.93;8.47;;;7.00;99.90;;;;;;4970147;28;20913;-60
2023/10/21 03:45:16;;;;;;;10.87;8.13;;;7.00;99.90;;;;;;4969718;28;20500;-61
2023/10/21 03:47:44;;;;;;;11.93;7.93;;;7.00;99.90;;;;;;4968782;28;21203;-60
2023/10/21 03:50:12;;;;;;;12.87;8.50;;;7.00;99.90;;;;;;4968634;28;20490;-60
2023/10/21 03:52:40;;;;;;;12.30;8.77;;;7.00;99.90;;;;;;4965395;28;20783;-60
2023/10/21 03:55:09;;;;;;;11.83;8.17;;;7.00;99.90;;;;;;4968819;28;20486;-61
2023/10/21 03:57:37;;;;;;;17.10;9.10;;;7.10;99.90;;;;;;4967431;28;20486;-60
2023/10/21 04:00:08;;;;;;;13.10;8.33;;;7.10;99.90;;;;;;4967571;28;20548;-60
2023/10/21 04:02:36;;;;;;;13.10;9.03;;;7.10;99.90;;;;;;4966841;28;20466;-60
2023/10/21 04:05:08;;;;;;;12.20;8.27;;;7.10;99.90;;;;;;4969199;28;20622;-61
2023/10/21 04:07:36;;;;;;;11.27;8.30;;;7.10;99.90;;;;;;4964611;28;20488;-60
2023/10/21 04:10:04;;;;;;;13.23;9.60;;;7.10;99.90;;;;;;4967602;28;20553;-60
2023/10/21 04:12:32;;;;;;;12.10;8.53;;;7.20;99.90;;;;;;4968075;28;20501;-60
2023/10/21 04:15:00;;;;;;;10.87;8.20;;;7.10;99.90;;;;;;4968136;28;20494;-60
2023/10/21 04:17:30;;;;;;;10.73;7.97;;;7.10;99.90;;;;;;4966448;28;20556;-60
2023/10/21 04:19:58;;;;;;;13.00;8.30;;;7.10;99.90;;;;;;4968268;28;21074;-62
2023/10/21 04:22:26;;;;;;;12.23;8.77;;;7.10;99.90;;;;;;4967873;28;20477;-60
2023/10/21 04:24:55;;;;;;;11.07;8.90;;;7.20;99.90;;;;;;4964884;28;20570;-60
2023/10/21 04:27:23;;;;;;;11.80;8.57;;;7.20;99.90;;;;;;4966707;28;20495;-60
2023/10/21 04:29:51;;;;;;;14.30;8.10;;;7.20;99.90;;;;;;4967750;28;21042;-60
2023/10/21 04:32:19;;;;;;;12.57;8.83;;;7.20;99.90;;;;;;4967306;28;20478;-60
2023/10/21 04:34:48;;;;;;;9.83;8.30;;;7.20;99.90;;;;;;4968168;28;20521;-60
2023/10/21 04:37:16;;;;;;;13.67;9.13;;;7.20;99.90;;;;;;4967561;28;20946;-61
2023/10/21 04:39:44;;;;;;;12.60;8.40;;;7.20;99.90;;;;;;4968986;28;21160;-60
2023/10/21 04:42:13;;;;;;;10.00;7.97;;;7.20;99.90;;;;;;4963877;28;20553;-60
2023/10/21 04:44:41;;;;;;;10.93;8.40;;;7.20;99.90;;;;;;4967192;28;21063;-60
2023/10/21 04:47:09;;;;;;;12.67;8.93;;;7.20;99.90;;;;;;4965445;28;20568;-60
2023/10/21 04:49:37;;;;;;;10.47;7.83;;;7.20;99.90;;;;;;4965357;28;20522;-60
2023/10/21 04:52:08;;;;;;;10.93;8.30;;;7.20;99.90;;;;;;4967665;28;21039;-60
2023/10/21 04:54:36;;;;;;;12.30;8.80;;;7.20;99.90;;;;;;4968473;28;20564;-60
2023/10/21 04:57:04;;;;;;;11.17;8.30;;;7.20;99.90;;;;;;4968420;28;20514;-60
2023/10/21 04:59:32;;;;;;;12.00;8.40;;;7.20;99.90;;;;;;4964954;28;20474;-60
2023/10/21 05:02:02;;;;;;;10.93;8.00;;;7.20;99.90;;;;;;4963028;28;20466;-60
2023/10/21 05:04:30;;;;;;;12.00;8.63;;;7.30;99.90;;;;;;4966566;28;21098;-60
2023/10/21 05:06:58;;;;;;;11.00;8.70;;;7.30;99.90;;;;;;4967892;28;20871;-60
2023/10/21 05:09:27;;;;;;;10.43;8.07;;;7.30;99.90;;;;;;4965244;28;20975;-60
2023/10/21 05:11:55;;;;;;;9.63;7.70;;;7.30;99.90;;;;;;4967639;28;20614;-60
2023/10/21 05:14:23;;;;;;;11.70;8.40;;;7.30;99.90;;;;;;4967801;28;20589;-60
2023/10/21 05:16:51;;;;;;;11.03;8.07;;;7.30;99.90;;;;;;4964777;28;21938;-60
2023/10/21 05:19:19;;;;;;;10.93;8.00;;;7.30;99.90;;;;;;4963498;28;20501;-61
2023/10/21 05:21:49;;;;;;;10.67;8.43;;;7.30;99.90;;;;;;4967342;28;20468;-60
2023/10/21 05:24:19;;;;;;;13.07;8.70;;;7.30;99.90;;;;;;4966258;28;20892;-60
2023/10/21 05:26:49;;;;;;;11.77;8.60;;;7.30;99.90;;;;;;4966751;28;20482;-60
2023/10/21 05:29:17;;;;;;;11.43;8.37;;;7.40;99.90;;;;;;4967387;28;20557;-60
2023/10/21 05:31:45;;;;;;;12.10;8.13;;;7.40;99.90;;;;;;4968080;28;20565;-60
2023/10/21 05:34:17;;;;;;;10.80;8.70;;;7.40;99.90;;;;;;4965441;28;20565;-60
2023/10/21 05:36:46;;;;;;;12.37;9.27;;;7.40;99.90;;;;;;4962529;28;20512;-60
2023/10/21 05:39:14;;;;;;;12.70;8.97;;;7.40;99.90;;;;;;4967207;28;20561;-60
2023/10/21 05:41:42;;;;;;;11.80;8.60;;;7.40;99.90;;;;;;4967054;28;21015;-60
2023/10/21 05:44:11;;;;;;;11.47;8.77;;;7.40;99.90;;;;;;4967091;28;20474;-61
2023/10/21 05:46:39;;;;;;;11.10;8.57;;;7.40;99.90;;;;;;4967340;28;20909;-60
2023/10/21 05:49:07;;;;;;;11.07;8.37;;;7.40;99.90;;;;;;4967033;28;20944;-60
2023/10/21 05:51:35;;;;;;;10.87;8.20;;;7.40;99.90;;;;;;4966960;28;20553;-61
2023/10/21 05:54:03;;;;;;;12.40;9.43;;;7.40;99.90;;;;;;4965167;28;20512;-61
2023/10/21 05:56:31;;;;;;;9.67;8.23;;;7.40;99.90;;;;;;4966002;28;20490;-60
2023/10/21 05:58:59;;;;;;;10.50;8.30;;;7.40;99.90;;;;;;4965472;28;20592;-60
2023/10/21 06:01:29;;;;;;;9.80;7.97;;;7.40;99.90;;;;;;4966405;28;20554;-60
2023/10/21 06:03:57;;;;;;;11.50;9.00;;;7.40;99.90;;;;;;4968059;28;20480;-60
2023/10/21 06:06:25;;;;;;;11.47;9.47;;;7.40;99.90;;;;;;4966121;28;20908;-60
2023/10/21 06:08:53;;;;;;;11.30;8.60;;;7.50;99.90;;;;;;4971464;28;20466;-61
2023/10/21 06:11:21;;;;;;;9.63;8.10;;;7.50;99.90;;;;;;4974866;28;20473;-60
2023/10/21 06:13:50;;;;;;;11.13;8.60;;;7.50;99.90;;;;;;4970022;28;20481;-60
2023/10/21 06:16:18;;;;;;;12.73;9.60;;;7.50;99.90;;;;;;4973147;28;20486;-60
2023/10/21 06:18:47;;;;;;;10.47;8.30;;;7.50;99.90;;;;;;4970767;28;20496;-61
2023/10/21 06:21:15;;;;;;;12.87;8.47;;;7.50;99.90;;;;;;4969166;28;20466;-60
2023/10/21 06:23:43;;;;;;;9.73;7.57;;;7.50;99.90;;;;;;4958046;28;20853;-60
2023/10/21 06:26:12;;;;;;;9.77;7.73;;;7.60;99.90;;;;;;4966203;28;20494;-60
2023/10/21 06:28:40;;;;;;;12.93;8.90;;;7.60;99.90;;;;;;4962889;28;20805;-61
2023/10/21 06:31:08;;;;;;;10.27;7.43;;;7.60;99.90;;;;;;4967714;28;20509;-60
2023/10/21 06:33:36;;;;;;;11.57;8.47;;;7.60;99.90;;;;;;4968023;28;20544;-60
2023/10/21 06:36:06;;;;;;;12.60;9.80;;;7.60;99.90;;;;;;4965888;28;20491;-61
2023/10/21 06:38:34;;;;;;;13.20;9.10;;;7.60;99.90;;;;;;4965057;28;20490;-60
2023/10/21 06:41:02;;;;;;;11.20;8.27;;;7.60;99.90;;;;;;4967239;28;20500;-63
2023/10/21 06:43:41;;;;;;;11.03;7.90;;;7.70;99.90;;;;;;4966739;28;20473;-63
2023/10/21 06:46:09;;;;;;;10.80;8.90;;;7.70;99.90;;;;;;4964586;28;20577;-63
2023/10/21 06:48:38;;;;;;;10.70;8.70;;;7.60;99.90;;;;;;4969162;28;20544;-61
2023/10/21 06:51:07;;;;;;;12.20;8.43;;;7.60;99.90;;;;;;4969116;28;20508;-60
2023/10/21 06:53:36;;;;;;;12.73;9.13;;;7.60;99.90;;;;;;4967539;28;20979;-60
2023/10/21 06:56:09;;;;;;;12.83;10.17;;;7.70;99.90;;;;;;4970883;28;20500;-60
2023/10/21 06:58:38;;;;;;;11.60;8.87;;;7.60;99.90;;;;;;4968977;28;21118;-60
2023/10/21 07:01:06;;;;;;;10.37;8.40;;;7.60;99.90;;;;;;4968687;28;20466;-60
2023/10/21 07:03:34;;;;;;;10.50;8.30;;;7.70;99.90;;;;;;4967797;28;20509;-60
2023/10/21 07:06:02;;;;;;;11.70;8.50;;;7.70;99.90;;;;;;4970468;28;20486;-60
2023/10/21 07:08:31;;;;;;;10.10;8.30;;;7.70;99.90;;;;;;4969533;28;20474;-61
2023/10/21 07:10:59;;;;;;;10.87;8.80;;;7.70;99.90;;;;;;4969300;28;20466;-60
2023/10/21 07:13:27;;;;;;;10.50;8.17;;;7.80;99.90;;;;;;4966161;28;21010;-60
2023/10/21 07:15:55;;;;;;;12.03;9.77;;;7.80;99.90;;;;;;4969091;28;20482;-60
2023/10/21 07:18:23;;;;;;;10.17;8.30;;;7.80;99.90;;;;;;4967337;28;20493;-60
2023/10/21 07:20:57;;;;;;;9.60;7.10;;;7.90;99.90;;;;;;4968521;28;20505;-60
2023/10/21 07:23:25;;;;;;;10.30;8.03;;;7.80;99.90;;;;;;4969942;28;20473;-60
2023/10/21 07:25:55;;;;;;;12.47;7.80;;;7.80;99.90;;;;;;4969619;28;20764;-60
2023/10/21 07:28:23;;;;;;;8.63;6.97;;;7.90;99.90;;;;;;4968101;28;20482;-61
2023/10/21 07:30:52;;;;;;;8.93;7.43;;;7.90;99.90;;;;;;4969949;28;20477;-61
2023/10/21 07:33:21;;;;;;;9.80;7.70;;;7.90;99.90;;;;;;4969255;28;20533;-60
2023/10/21 07:35:51;;;;;;;9.23;8.27;;;7.90;99.90;;;;;;4967650;28;20490;-61
2023/10/21 07:38:19;;;;;;;9.80;7.60;;;7.90;99.90;;;;;;4967318;28;20486;-60
2023/10/21 07:40:47;;;;;;;7.93;7.10;;;8.00;99.90;;;;;;4969563;28;20526;-60
2023/10/21 07:43:17;;;;;;;9.33;8.00;;;8.00;99.90;;;;;;4967665;28;20597;-60
2023/10/21 07:45:46;;;;;;;8.80;7.60;;;8.00;99.90;;;;;;4968150;28;20572;-60
2023/10/21 07:48:14;;;;;;;9.47;6.93;;;8.00;99.90;;;;;;4969650;28;20463;-60
2023/10/21 07:50:42;;;;;;;9.37;7.43;;;8.00;99.90;;;;;;4969411;28;20470;-60
2023/10/21 07:53:10;;;;;;;10.27;7.90;;;8.00;99.90;;;;;;4965457;28;20470;-60
2023/10/21 07:55:38;;;;;;;8.20;6.93;;;8.00;99.90;;;;;;4967987;28;20525;-60
2023/10/21 07:58:08;;;;;;;8.50;7.40;;;8.10;99.90;;;;;;4968542;28;20557;-61
2023/10/21 08:00:39;;;;;;;8.77;6.80;;;8.10;99.90;;;;;;4966896;28;20525;-60
2023/10/21 08:03:08;;;;;;;10.17;7.43;;;8.20;99.90;;;;;;4968923;28;20558;-60
2023/10/21 08:05:36;;;;;;;9.27;7.30;;;8.20;99.90;;;;;;4968284;28;20514;-60
2023/10/21 08:08:04;;;;;;;8.33;7.23;;;8.20;99.90;;;;;;4968533;28;20908;-60
2023/10/21 08:10:33;;;;;;;8.40;6.80;;;8.30;99.90;;;;;;4966259;28;20759;-60
2023/10/21 08:13:01;;;;;;;8.07;6.83;;;8.30;99.90;;;;;;4968328;28;20502;-60
2023/10/21 08:15:30;;;;;;;7.40;6.37;;;8.30;99.90;;;;;;4968573;28;20490;-60
2023/10/21 08:17:59;;;;;;;7.17;6.47;;;8.30;99.90;;;;;;4967073;28;20474;-61
2023/10/21 08:20:27;;;;;;;6.27;5.63;;;8.40;99.90;;;;;;4967022;28;20504;-61
2023/10/21 08:22:56;;;;;;;8.00;6.40;;;8.40;99.90;;;;;;4967862;28;20922;-60
2023/10/21 08:25:24;;;;;;;7.60;6.70;;;8.40;99.90;;;;;;4968622;28;21003;-60
2023/10/21 08:27:52;;;;;;;7.33;6.00;;;8.40;99.90;;;;;;4964554;28;20820;-60
2023/10/21 08:30:20;;;;;;;6.17;5.40;;;8.40;99.90;;;;;;4969280;28;20472;-60
2023/10/21 08:32:51;;;;;;;6.70;5.70;;;8.40;99.90;;;;;;4968576;28;20474;-61
2023/10/21 08:35:20;;;;;;;6.50;5.30;;;8.40;99.90;;;;;;4968305;28;20521;-61
2023/10/21 08:37:48;;;;;;;7.47;6.17;;;8.40;99.90;;;;;;4967189;28;20524;-61
2023/10/21 08:40:16;;;;;;;6.70;6.00;;;8.50;99.90;;;;;;4967894;28;20927;-60
2023/10/21 08:42:44;;;;;;;7.53;5.70;;;8.50;99.90;;;;;;4967581;28;20570;-60
2023/10/21 08:45:29;;;;;;;7.10;5.20;;;8.50;99.90;;;;;;4964869;28;21046;-61
2023/10/21 08:47:58;;;;;;;5.43;4.80;;;8.50;99.90;;;;;;4967493;28;20922;-61
2023/10/21 08:50:28;;;;;;;5.20;4.70;;;8.50;99.90;;;;;;4967886;28;20469;-60
2023/10/21 08:52:58;;;;;;;6.27;5.33;;;8.50;99.90;;;;;;4966749;28;20553;-60
2023/10/21 08:55:26;;;;;;;5.07;4.67;;;8.60;99.90;;;;;;4968366;28;21097;-60
2023/10/21 08:57:55;;;;;;;5.87;4.93;;;8.60;99.90;;;;;;4967830;28;20573;-60
2023/10/21 09:00:24;;;;;;;4.93;4.53;;;8.60;99.90;;;;;;4964367;28;20494;-60
2023/10/21 09:02:52;;;;;;;4.67;4.27;;;8.60;99.90;;;;;;4967684;28;20473;-60
2023/10/21 09:05:20;;;;;;;4.80;4.30;;;8.60;99.90;;;;;;4967454;28;20505;-61
2023/10/21 09:07:50;;;;;;;4.70;4.30;;;8.60;99.90;;;;;;4966284;28;20494;-60
2023/10/21 09:10:20;;;;;;;4.17;3.77;;;8.60;99.90;;;;;;4966179;28;20538;-60
2023/10/21 09:12:49;;;;;;;4.83;4.10;;;8.70;99.90;;;;;;4967426;28;20553;-60
2023/10/21 09:15:18;;;;;;;3.80;3.50;;;8.70;99.90;;;;;;4965824;28;20520;-60
2023/10/21 09:17:51;;;;;;;4.23;3.83;;;8.70;99.90;;;;;;4965673;28;20580;-61
2023/10/21 09:20:21;;;;;;;4.00;3.60;;;8.70;99.90;;;;;;4965113;28;20518;-60
2023/10/21 09:22:51;;;;;;;4.13;3.83;;;8.80;99.90;;;;;;4967132;28;20477;-60
2023/10/21 09:25:21;;;;;;;4.80;4.10;;;8.80;99.90;;;;;;4967675;28;20578;-61
2023/10/21 09:27:53;;;;;;;4.60;4.07;;;8.70;99.90;;;;;;4964296;28;20489;-61
2023/10/21 09:30:22;;;;;;;5.10;4.43;;;8.80;99.90;;;;;;4966021;28;20510;-60
2023/10/21 09:32:51;;;;;;;4.77;4.10;;;8.80;99.90;;;;;;4967651;28;20554;-60
2023/10/21 09:35:23;;;;;;;4.90;4.20;;;8.80;99.90;;;;;;4966979;28;20584;-60
2023/10/21 09:37:53;;;;;;;4.97;4.47;;;8.80;99.90;;;;;;4964617;28;20498;-60
2023/10/21 09:40:24;;;;;;;4.77;4.20;;;8.80;99.90;;;;;;4967578;28;20494;-60
2023/10/21 09:42:53;;;;;;;4.33;3.93;;;8.80;99.90;;;;;;4966918;28;21073;-60
2023/10/21 09:45:23;;;;;;;5.07;4.57;;;8.90;99.90;;;;;;4966536;28;20806;-60
2023/10/21 09:47:55;;;;;;;4.23;3.83;;;8.90;99.90;;;;;;4966105;28;20914;-60
2023/10/21 09:50:25;;;;;;;4.20;3.80;;;8.90;99.90;;;;;;4965488;28;20592;-60
2023/10/21 09:53:02;;;;;;;4.03;3.23;;;8.90;99.90;;;;;;4966589;28;20502;-60
2023/10/21 09:55:32;;;;;;;4.10;3.80;;;9.00;99.90;;;;;;4964610;28;20591;-61
2023/10/21 09:58:01;;;;;;;4.20;3.80;;;9.00;99.90;;;;;;4967650;28;20920;-60
2023/10/21 10:00:30;;;;;;;3.70;3.40;;;9.00;99.90;;;;;;4966462;28;20584;-61
2023/10/21 10:02:59;;;;;;;3.67;3.37;;;9.00;99.90;;;;;;4966135;28;20915;-60
2023/10/21 10:05:28;;;;;;;4.50;4.10;;;9.00;99.90;;;;;;4965370;28;20588;-61
2023/10/21 10:08:00;;;;;;;5.17;4.27;;;9.10;99.90;;;;;;4965802;28;20478;-61
2023/10/21 10:10:29;;;;;;;4.40;4.00;;;9.10;99.90;;;;;;4965303;28;20501;-61
2023/10/21 10:13:02;;;;;;;4.73;4.33;;;9.10;99.90;;;;;;4967088;28;20670;-60
2023/10/21 10:15:33;;;;;;;5.00;4.10;;;9.10;99.90;;;;;;4965796;28;20489;-59
2023/10/21 10:18:03;;;;;;;4.67;3.97;;;9.20;99.90;;;;;;4966887;28;20484;-60
2023/10/21 10:20:32;;;;;;;4.40;3.97;;;9.10;99.90;;;;;;4965625;28;20496;-60
2023/10/21 10:23:03;;;;;;;4.83;4.43;;;9.10;99.90;;;;;;4966395;28;20903;-60
2023/10/21 10:25:32;;;;;;;5.23;4.73;;;9.10;99.90;;;;;;4970240;28;21010;-60
2023/10/21 10:28:04;;;;;;;6.00;5.30;;;9.10;99.90;;;;;;4968998;28;20484;-60
2023/10/21 10:30:33;;;;;;;5.77;5.17;;;9.20;99.90;;;;;;4971554;28;20551;-60
2023/10/21 10:33:12;;;;;;;6.60;5.30;;;9.10;99.90;;;;;;4968077;28;20484;-60
2023/10/21 10:35:46;;;;;;;6.03;5.40;;;9.20;99.90;;;;;;4970154;28;20493;-60
2023/10/21 10:38:24;;;;;;;6.90;5.90;;;9.20;99.90;;;;;;4970373;28;20560;-60
2023/10/21 10:40:53;;;;;;;6.73;6.10;;;9.20;99.90;;;;;;4967155;28;20503;-59
2023/10/21 10:43:21;;;;;;;7.90;6.43;;;9.20;99.90;;;;;;4969426;28;20846;-59
2023/10/21 10:45:51;;;;;;;6.57;5.90;;;9.20;99.90;;;;;;4969794;28;20489;-60
2023/10/21 10:48:19;;;;;;;7.50;6.63;;;9.20;99.90;;;;;;4969335;28;20506;-60
2023/10/21 10:50:47;;;;;;;7.90;6.67;;;9.20;99.90;;;;;;4968886;28;20552;-60
2023/10/21 10:53:17;;;;;;;8.27;6.90;;;9.20;99.90;;;;;;4969791;28;20474;-59
2023/10/21 10:55:49;;;;;;;10.57;6.70;;;9.20;99.90;;;;;;4968408;28;20916;-59
2023/10/21 10:58:19;;;;;;;8.50;7.60;;;9.20;99.90;;;;;;4967913;28;20474;-59
2023/10/21 11:00:47;;;;;;;7.80;6.83;;;9.30;99.90;;;;;;4967423;28;20490;-59
2023/10/21 11:03:25;;;;;;;7.57;6.60;;;9.30;99.90;;;;;;4969950;28;20985;-59
2023/10/21 11:05:55;;;;;;;9.90;7.40;;;9.20;99.90;;;;;;4970070;28;20469;-60
2023/10/21 11:08:23;;;;;;;9.80;7.67;;;9.20;99.90;;;;;;4969010;28;20470;-59
2023/10/21 11:11:01;;;;;;;7.83;7.00;;;9.20;99.90;;;;;;4968882;28;20552;-60
2023/10/21 11:13:29;;;;;;;10.40;8.47;;;9.30;99.90;;;;;;4965559;28;20533;-60
2023/10/21 11:15:58;;;;;;;9.00;8.10;;;9.20;99.90;;;;;;4969058;28;20521;-59
2023/10/21 11:18:26;;;;;;;9.40;8.27;;;9.30;99.90;;;;;;4966305;28;20489;-60
2023/10/21 11:20:55;;;;;;;8.13;7.30;;;9.30;99.90;;;;;;4970018;28;20486;-60
2023/10/21 11:23:24;;;;;;;8.77;7.87;;;9.30;99.90;;;;;;4970062;28;20536;-59
2023/10/21 11:25:56;;;;;;;9.27;7.80;;;9.30;99.90;;;;;;4968546;28;20516;-59
2023/10/21 11:28:26;;;;;;;10.20;8.60;;;9.30;99.90;;;;;;4969670;28;20549;-60
2023/10/21 11:30:54;;;;;;;9.37;8.47;;;9.30;99.90;;;;;;4967486;28;20542;-60
2023/10/21 11:33:22;;;;;;;9.00;7.80;;;9.40;99.90;;;;;;4967748;28;20466;-60
2023/10/21 11:35:52;;;;;;;9.17;7.63;;;9.40;99.90;;;;;;4968498;28;21099;-59
2023/10/21 11:38:21;;;;;;;8.90;7.60;;;9.40;99.90;;;;;;4968917;28;20486;-60
2023/10/21 11:40:49;;;;;;;7.27;6.53;;;9.40;99.90;;;;;;4969430;28;20481;-60
2023/10/21 11:43:19;;;;;;;9.03;7.60;;;9.50;99.90;;;;;;4969084;28;20560;-59
2023/10/21 11:45:47;;;;;;;7.90;6.87;;;9.50;99.90;;;;;;4967579;28;20529;-59
2023/10/21 11:48:17;;;;;;;8.13;7.27;;;9.50;99.90;;;;;;4965410;28;21039;-59
2023/10/21 11:50:46;;;;;;;8.00;7.20;;;9.50;99.90;;;;;;4968713;28;20991;-60
2023/10/21 11:53:15;;;;;;;8.20;7.37;;;9.50;99.90;;;;;;4969180;28;20920;-60
2023/10/21 11:56:52;;;;;;;8.47;7.40;;;9.60;99.90;;;;;;4967893;28;20588;-60
2023/10/21 12:13:47;;;;;;;8.27;7.47;;;9.80;99.90;;;;;;4905984;29;20487;-59
2023/10/21 12:16:54;;;;;;;9.93;7.43;;;9.80;99.90;;;;;;4954355;28;20494;-59
2023/10/21 12:36:34;;;;;;;9.17;7.77;;;10.30;99.90;;;;;;4945887;28;20912;-60
2023/10/21 12:39:20;;;;;;;8.97;8.07;;;10.80;99.90;;;;;;4968251;28;20947;-59
2023/10/21 12:41:57;;;;;;;8.47;7.27;;;11.40;99.90;;;;;;4968554;28;21035;-59
2023/10/21 12:44:26;;;;;;;7.83;7.13;;;11.80;99.90;;;;;;4967311;28;21023;-59
2023/10/21 12:46:57;;;;;;;7.70;6.90;;;11.80;99.90;;;;;;4959436;28;20502;-58
2023/10/21 12:49:28;;;;;;;8.90;8.00;;;11.70;99.90;;;;;;4964142;28;20545;-59
2023/10/21 12:51:56;;;;;;;9.37;8.40;;;11.50;99.90;;;;;;4969045;28;20466;-59
2023/10/21 12:54:30;;;;;;;8.60;7.80;;;11.30;99.90;;;;;;4967413;28;20999;-59
2023/10/21 12:56:59;;;;;;;10.13;9.13;;;11.10;99.90;;;;;;4965903;28;20489;-59
2023/10/21 12:59:27;;;;;;;9.93;8.93;;;11.00;99.90;;;;;;4962785;28;20462;-59
2023/10/21 13:01:55;;;;;;;11.17;9.37;;;10.90;99.90;;;;;;4966835;28;20645;-59
2023/10/21 13:04:23;;;;;;;11.90;10.50;;;10.90;99.90;;;;;;4966628;28;20498;-59
2023/10/21 13:06:53;;;;;;;12.50;10.17;;;10.90;99.90;;;;;;4966837;28;20473;-59
2023/10/21 13:09:24;;;;;;;11.90;10.70;;;10.80;99.90;;;;;;4968098;28;20553;-59
2023/10/21 13:11:53;;;;;;;11.67;10.47;;;10.90;99.90;;;;;;4966584;28;20565;-59
2023/10/21 13:14:23;;;;;;;11.40;10.20;;;11.30;99.90;;;;;;4967124;28;21029;-59
2023/10/21 13:16:52;;;;;;;10.70;9.70;;;12.30;99.90;;;;;;4960400;28;20589;-59
2023/10/21 13:19:20;;;;;;;9.70;8.80;;;12.90;99.90;;;;;;4963006;28;20508;-59
2023/10/21 13:21:52;;;;;;;10.23;9.23;;;13.20;99.90;;;;;;4968503;28;20525;-59
2023/10/21 13:24:22;;;;;;;9.80;8.80;;;13.10;99.90;;;;;;4966757;28;20496;-59
2023/10/21 13:26:51;;;;;;;9.97;9.07;;;12.90;99.90;;;;;;4965730;28;20556;-59
2023/10/21 13:29:19;;;;;;;9.60;8.60;;;12.90;99.90;;;;;;4966894;28;20477;-59
2023/10/21 13:31:49;;;;;;;9.90;9.00;;;12.80;99.90;;;;;;4967629;28;20971;-59
2023/10/21 13:34:17;;;;;;;10.23;9.33;;;12.70;99.90;;;;;;4965979;28;20564;-59
2023/10/21 13:36:45;;;;;;;9.97;9.07;;;12.50;99.90;;;;;;4966894;28;20588;-59